KGON/GON METAR and TAF weather

Enter ICAO airport designator
Station Type Date Time Source
KGON METAR 2020/01/24 20:56 UTC NOAA

KGON 242056Z 12007KT 10SM CLR 07/M01 A3034 RMK AO2 SLP274 T00671011 57002


Station Type Date Time Source
KGON Decoded METAR 2020/01/24 20:56 UTC NOAA

GROTON/NEW LONDON AIRPORT , CT, United States (KGON) 41-20N 72-03W 3M
Jan 24, 2020 - 03:56 PM EST / 2020.01.24 2056 UTC
Wind: from the ESE (120 degrees) at 8 MPH (7 KT):0
Visibility: 10 mile(s):0
Sky conditions: clear
Temperature: 44.1 F (6.7 C)
Dew Point: 30.0 F (-1.1 C)
Relative Humidity: 57%
Pressure (altimeter): 30.34 in. Hg (1027 hPa)
Pressure tendency: 0.01 inches (0.2 hPa) lower than three hours ago
ob: KGON 242056Z 12007KT 10SM CLR 07/M01 A3034 RMK AO2 SLP274 T00671011 57002
cycle: 21

Station Type Date Time Source
KGON TAF 2020/01/24 21:42 UTC NOAA

TAF
AMD KGON 242039Z 2421/2518 07008KT P6SM SCT200
FM250700 05010KT P6SM BKN025
FM251100 06015KT P6SM BKN015
FM251400 08018G24KT 4SM BR OVC015 WS020/12050KT
TEMPO 2514/2518 -RA OVC010

Example: see airport list